Time;durP1;ratioP1;P1;durP2;ratioP2;P2;SDS_P1;SDS_P2;PMS_P1;PMS_P2;Temp;Humidity;BMP_temperature;BMP_pressure;BME280_temperature;BME280_humidity;BME280_pressure;Samples;Min_cycle;Max_cycle;Signal;HPM_P1;HPM_P2
2021/01/07 00:00:25;;;;;;;27.60;9.23;;;1.50;99.90;;;;;;4900770;28;20195;-80
2021/01/07 00:02:48;;;;;;;34.22;10.27;;;1.50;99.90;;;;;;4896264;28;20605;-79
2021/01/07 00:05:11;;;;;;;34.53;9.25;;;1.50;99.90;;;;;;4900717;28;20537;-80
2021/01/07 00:07:34;;;;;;;39.88;9.25;;;1.60;99.90;;;;;;4900395;28;20116;-79
2021/01/07 00:09:58;;;;;;;33.15;9.32;;;1.50;99.90;;;;;;4900118;28;20338;-79
2021/01/07 00:12:20;;;;;;;31.25;8.50;;;1.50;99.90;;;;;;4898707;28;20083;-78
2021/01/07 00:14:43;;;;;;;31.63;8.82;;;1.50;99.90;;;;;;4897869;28;20096;-80
2021/01/07 00:17:06;;;;;;;27.58;8.55;;;1.50;99.90;;;;;;4898005;28;20170;-80
2021/01/07 00:19:29;;;;;;;28.77;8.90;;;1.50;99.90;;;;;;4902192;28;20097;-80
2021/01/07 00:21:52;;;;;;;30.88;8.77;;;1.50;99.90;;;;;;4900072;28;20094;-79
2021/01/07 00:24:15;;;;;;;34.70;8.80;;;1.50;99.90;;;;;;4897239;28;20474;-79
2021/01/07 00:26:38;;;;;;;36.70;9.60;;;1.40;99.90;;;;;;4897472;28;20161;-79
2021/01/07 00:29:01;;;;;;;26.10;7.93;;;1.40;99.90;;;;;;4896251;28;20086;-79
2021/01/07 00:31:24;;;;;;;32.28;9.40;;;1.40;99.90;;;;;;4900654;28;20096;-80
2021/01/07 00:33:47;;;;;;;35.65;9.98;;;1.40;99.90;;;;;;4891044;28;20091;-80
2021/01/07 00:36:10;;;;;;;31.98;8.88;;;1.40;99.90;;;;;;4887905;28;20110;-78
2021/01/07 00:38:33;;;;;;;40.60;10.20;;;1.40;99.90;;;;;;4889267;28;20091;-79
2021/01/07 00:40:56;;;;;;;30.65;9.88;;;1.30;99.90;;;;;;4889651;28;20087;-79
2021/01/07 00:43:20;;;;;;;32.72;9.80;;;1.40;99.90;;;;;;4891143;28;20111;-79
2021/01/07 00:45:42;;;;;;;31.70;9.65;;;1.40;99.90;;;;;;4888617;28;20191;-79
2021/01/07 00:48:06;;;;;;;27.35;8.77;;;1.40;99.90;;;;;;4890498;28;20110;-79
2021/01/07 00:50:29;;;;;;;31.40;8.50;;;1.40;99.90;;;;;;4887665;28;20175;-79
2021/01/07 00:52:52;;;;;;;28.77;8.70;;;1.40;99.90;;;;;;4889834;28;20087;-78
2021/01/07 00:55:17;;;;;;;31.33;9.00;;;1.40;99.90;;;;;;4890686;28;20096;-79
2021/01/07 00:57:40;;;;;;;31.35;10.70;;;1.40;99.90;;;;;;4890270;28;20115;-80
2021/01/07 01:00:06;;;;;;;27.52;7.78;;;1.40;99.90;;;;;;4887326;28;20081;-79
2021/01/07 01:02:30;;;;;;;26.73;9.27;;;1.20;99.90;;;;;;4896098;28;20095;-79
2021/01/07 01:04:53;;;;;;;27.83;9.55;;;1.30;99.90;;;;;;4900123;28;20091;-79
2021/01/07 01:07:16;;;;;;;27.95;8.27;;;1.30;99.90;;;;;;4893971;28;20169;-79
2021/01/07 01:09:39;;;;;;;25.23;8.40;;;;;;;;;;4897739;28;20083;-80
2021/01/07 01:12:04;;;;;;;26.88;9.05;;;1.30;99.90;;;;;;4896744;28;20086;-80
2021/01/07 01:14:27;;;;;;;29.83;9.57;;;1.20;99.90;;;;;;4895593;28;20090;-79
2021/01/07 01:16:52;;;;;;;29.45;8.00;;;1.30;99.90;;;;;;4898993;28;20087;-79
2021/01/07 01:19:15;;;;;;;26.15;8.75;;;1.20;99.90;;;;;;4900141;28;20095;-80
2021/01/07 01:21:38;;;;;;;24.55;8.48;;;1.30;99.90;;;;;;4899395;28;20087;-80
2021/01/07 01:24:01;;;;;;;29.02;9.45;;;1.30;99.90;;;;;;4898014;28;20179;-80
2021/01/07 01:26:24;;;;;;;30.40;8.82;;;1.30;99.90;;;;;;4897718;28;20182;-80
2021/01/07 01:28:47;;;;;;;26.08;8.18;;;1.30;99.90;;;;;;4899160;28;20183;-80
2021/01/07 01:31:10;;;;;;;25.65;8.45;;;1.30;99.90;;;;;;4896280;28;20198;-80
2021/01/07 01:33:34;;;;;;;30.27;9.00;;;1.20;99.90;;;;;;4896889;28;20101;-78
2021/01/07 01:35:57;;;;;;;34.85;9.73;;;1.20;99.90;;;;;;4897179;28;20114;-80
2021/01/07 01:38:20;;;;;;;32.47;9.65;;;;;;;;;;4894276;28;20162;-79
2021/01/07 01:40:43;;;;;;;37.28;10.15;;;;;;;;;;4900847;28;20088;-78
2021/01/07 01:43:05;;;;;;;29.40;8.93;;;1.30;99.90;;;;;;4899081;28;20475;-79
2021/01/07 01:45:28;;;;;;;34.50;10.07;;;1.20;99.90;;;;;;4893833;28;20457;-79
2021/01/07 01:47:51;;;;;;;38.75;10.75;;;1.20;99.90;;;;;;4893440;28;20111;-79
2021/01/07 01:50:15;;;;;;;38.28;10.18;;;;;;;;;;4890848;28;20381;-79
2021/01/07 01:52:38;;;;;;;35.17;9.65;;;1.20;99.90;;;;;;4897569;28;20280;-79
2021/01/07 01:55:01;;;;;;;31.13;10.40;;;1.10;99.90;;;;;;4897406;28;20092;-79
2021/01/07 01:57:26;;;;;;;34.90;9.02;;;1.10;99.90;;;;;;4874609;28;20099;-79
2021/01/07 01:59:49;;;;;;;34.58;9.48;;;1.10;99.90;;;;;;4897542;28;20087;-79
2021/01/07 02:02:14;;;;;;;27.88;9.63;;;1.10;99.90;;;;;;4878182;28;20117;-79
2021/01/07 02:04:37;;;;;;;28.10;8.45;;;1.10;99.90;;;;;;4896125;28;20215;-80
2021/01/07 02:07:03;;;;;;;27.45;8.18;;;1.20;99.90;;;;;;4887041;28;20187;-79
2021/01/07 02:09:28;;;;;;;28.50;8.77;;;1.20;99.90;;;;;;4892236;28;20542;-79
2021/01/07 02:11:52;;;;;;;33.70;10.15;;;1.20;99.90;;;;;;4892731;28;20825;-80
2021/01/07 02:14:15;;;;;;;32.45;9.40;;;;;;;;;;4896918;28;20161;-78
2021/01/07 02:16:38;;;;;;;28.25;9.10;;;1.20;99.90;;;;;;4894111;28;20517;-81
2021/01/07 02:19:01;;;;;;;30.05;8.15;;;1.30;99.90;;;;;;4899754;28;20177;-79
2021/01/07 02:21:25;;;;;;;43.78;10.02;;;1.30;99.90;;;;;;4893912;28;20093;-80
2021/01/07 02:23:50;;;;;;;34.53;9.63;;;1.20;99.90;;;;;;4897295;28;20175;-80
2021/01/07 02:26:13;;;;;;;42.73;10.07;;;1.20;99.90;;;;;;4898032;28;20112;-79
2021/01/07 02:28:35;;;;;;;34.90;9.43;;;1.20;99.90;;;;;;4900501;28;20588;-80
2021/01/07 02:30:58;;;;;;;37.72;9.38;;;1.20;99.90;;;;;;4890121;28;20114;-79
2021/01/07 02:33:21;;;;;;;34.75;9.90;;;1.20;99.90;;;;;;4896899;28;20091;-79
2021/01/07 02:35:44;;;;;;;46.95;10.65;;;1.20;99.90;;;;;;4893258;28;20178;-79
2021/01/07 02:38:08;;;;;;;37.65;10.13;;;;;;;;;;4875194;28;20540;-80
2021/01/07 02:40:31;;;;;;;39.30;11.40;;;1.20;99.90;;;;;;4886910;28;20168;-79
2021/01/07 02:42:53;;;;;;;37.28;9.63;;;1.20;99.90;;;;;;4886091;28;20089;-79
2021/01/07 02:45:18;;;;;;;37.88;9.45;;;1.20;99.90;;;;;;4888155;28;20095;-79
2021/01/07 02:47:40;;;;;;;34.05;10.63;;;;;;;;;;4887601;28;20520;-79
2021/01/07 02:50:05;;;;;;;30.42;9.23;;;1.20;99.90;;;;;;4888308;28;20508;-79
2021/01/07 02:52:28;;;;;;;34.20;9.38;;;1.20;99.90;;;;;;4887694;28;20503;-79
2021/01/07 02:54:51;;;;;;;33.90;9.10;;;1.30;99.90;;;;;;4886870;28;20551;-79
2021/01/07 02:57:14;;;;;;;38.92;9.65;;;1.30;99.90;;;;;;4870422;28;21982;-81
2021/01/07 02:59:37;;;;;;;37.13;10.02;;;1.20;99.90;;;;;;4886890;28;20165;-79
2021/01/07 03:02:00;;;;;;;32.55;9.75;;;1.30;99.90;;;;;;4888164;28;20119;-80
2021/01/07 03:04:23;;;;;;;42.17;9.88;;;1.20;99.90;;;;;;4888641;28;20127;-80
2021/01/07 03:06:46;;;;;;;38.22;9.00;;;1.20;99.90;;;;;;4892932;28;20099;-79
2021/01/07 03:09:09;;;;;;;45.83;10.77;;;1.20;99.90;;;;;;4891826;28;20189;-80
2021/01/07 03:11:35;;;;;;;32.88;10.63;;;1.20;99.90;;;;;;4892498;28;20206;-81
2021/01/07 03:13:57;;;;;;;37.13;9.85;;;1.20;99.90;;;;;;4891712;28;20529;-79
2021/01/07 03:16:20;;;;;;;37.83;10.15;;;1.20;99.90;;;;;;4892472;28;20538;-80
2021/01/07 03:18:43;;;;;;;48.22;11.55;;;1.20;99.90;;;;;;4889869;28;20083;-79
2021/01/07 03:21:06;;;;;;;39.25;10.77;;;1.30;99.90;;;;;;4892192;28;20119;-80
2021/01/07 03:23:29;;;;;;;36.85;10.88;;;1.40;99.90;;;;;;4890259;28;20095;-79
2021/01/07 03:25:52;;;;;;;41.45;9.75;;;2.10;99.90;;;;;;4890528;28;20174;-80
2021/01/07 03:28:16;;;;;;;46.20;11.52;;;;;;;;;;4891058;28;20205;-79
2021/01/07 03:30:39;;;;;;;46.75;11.73;;;1.40;99.90;;;;;;4892546;28;20119;-79
2021/01/07 03:33:02;;;;;;;47.08;11.45;;;1.30;99.90;;;;;;4897868;28;20538;-79
2021/01/07 03:35:25;;;;;;;42.65;11.07;;;1.30;99.90;;;;;;4900773;28;20182;-80
2021/01/07 03:37:48;;;;;;;41.67;10.38;;;1.30;99.90;;;;;;4904055;28;20178;-80
2021/01/07 03:40:12;;;;;;;41.08;10.68;;;1.30;99.90;;;;;;4898193;28;20146;-80
2021/01/07 03:42:34;;;;;;;47.70;11.98;;;1.30;99.90;;;;;;4897083;28;20597;-78
2021/01/07 03:44:58;;;;;;;56.20;12.07;;;1.30;99.90;;;;;;4890882;28;20186;-80
2021/01/07 03:47:21;;;;;;;46.58;11.27;;;1.30;99.90;;;;;;4901985;28;20106;-80
2021/01/07 03:49:44;;;;;;;72.88;12.50;;;1.40;99.90;;;;;;4903928;28;20096;-80
2021/01/07 03:52:07;;;;;;;50.60;11.57;;;1.40;99.90;;;;;;4910928;28;20519;-80
2021/01/07 03:54:30;;;;;;;48.50;10.52;;;1.40;99.90;;;;;;4890321;28;20134;-79
2021/01/07 03:56:53;;;;;;;47.17;11.38;;;1.40;99.90;;;;;;4892470;28;20112;-80
2021/01/07 03:59:16;;;;;;;54.17;12.23;;;1.40;99.90;;;;;;4890535;28;20083;-79
2021/01/07 04:01:40;;;;;;;48.83;10.93;;;;;;;;;;4892869;28;20129;-80
2021/01/07 04:04:03;;;;;;;58.88;13.13;;;1.40;99.90;;;;;;4890603;28;20639;-79
2021/01/07 04:06:25;;;;;;;57.50;12.75;;;1.40;99.90;;;;;;4890896;28;20154;-79
2021/01/07 04:08:48;;;;;;;55.95;11.15;;;1.40;99.90;;;;;;4892063;28;20113;-79
2021/01/07 04:11:11;;;;;;;57.42;11.68;;;1.40;99.90;;;;;;4891890;28;20156;-80
2021/01/07 04:13:34;;;;;;;54.58;12.15;;;;;;;;;;4891600;28;20079;-80
2021/01/07 04:15:57;;;;;;;56.53;10.50;;;1.40;99.90;;;;;;4891670;28;20099;-78
2021/01/07 04:18:21;;;;;;;51.97;12.75;;;;;;;;;;4891337;28;20091;-78
2021/01/07 04:20:45;;;;;;;64.85;12.73;;;1.30;99.90;;;;;;4890529;28;20095;-80
2021/01/07 04:23:08;;;;;;;53.00;11.35;;;1.20;99.90;;;;;;4891004;28;20174;-80
2021/01/07 04:25:31;;;;;;;53.45;10.93;;;1.30;99.90;;;;;;4889415;28;20096;-80
2021/01/07 04:27:54;;;;;;;49.83;10.80;;;1.20;99.90;;;;;;4891525;28;20171;-79
2021/01/07 04:30:18;;;;;;;52.03;10.23;;;1.20;99.90;;;;;;4889056;28;20563;-79
2021/01/07 04:32:41;;;;;;;52.05;10.95;;;1.30;99.90;;;;;;4890243;28;20093;-80
2021/01/07 04:35:06;;;;;;;55.88;11.52;;;1.30;99.90;;;;;;4890433;28;20168;-79
2021/01/07 04:37:29;;;;;;;45.30;10.10;;;1.20;99.90;;;;;;4874004;28;20163;-80
2021/01/07 04:39:52;;;;;;;43.58;10.80;;;1.30;99.90;;;;;;4884908;28;20107;-79
2021/01/07 04:42:15;;;;;;;44.25;10.77;;;1.20;99.90;;;;;;4889693;28;20100;-78
2021/01/07 04:44:39;;;;;;;42.97;9.35;;;1.30;99.90;;;;;;4891506;28;20510;-79
2021/01/07 04:47:03;;;;;;;38.15;10.23;;;1.30;99.90;;;;;;4891147;28;20083;-80
2021/01/07 04:49:26;;;;;;;43.92;10.35;;;2.30;99.90;;;;;;4890003;28;20448;-79
2021/01/07 04:51:50;;;;;;;46.53;10.77;;;1.30;99.90;;;;;;4888596;28;20099;-79
2021/01/07 04:54:14;;;;;;;68.75;12.15;;;1.30;99.90;;;;;;4889998;28;20218;-80
2021/01/07 04:56:37;;;;;;;58.22;12.40;;;1.30;99.90;;;;;;4890016;28;20178;-80
2021/01/07 04:59:00;;;;;;;52.38;12.65;;;1.30;99.90;;;;;;4891260;28;20520;-80
2021/01/07 05:01:23;;;;;;;40.08;10.60;;;1.30;99.90;;;;;;4890257;28;20098;-80
2021/01/07 05:03:46;;;;;;;49.00;11.35;;;1.40;99.90;;;;;;4897983;28;20242;-80
2021/01/07 05:06:09;;;;;;;47.28;11.20;;;1.40;99.90;;;;;;4880647;28;20108;-80
2021/01/07 05:08:34;;;;;;;51.83;11.60;;;1.40;99.90;;;;;;4888495;28;20599;-80
2021/01/07 05:10:58;;;;;;;50.70;10.70;;;1.30;99.90;;;;;;4889220;28;20100;-79
2021/01/07 05:13:22;;;;;;;51.97;9.95;;;1.30;99.90;;;;;;4889247;28;20081;-80
2021/01/07 05:15:45;;;;;;;40.60;9.63;;;1.30;99.90;;;;;;4890793;28;20166;-80
2021/01/07 05:18:08;;;;;;;53.42;10.02;;;1.30;99.90;;;;;;4889746;28;20530;-79
2021/01/07 05:20:31;;;;;;;39.83;9.98;;;1.30;99.90;;;;;;4890102;28;20126;-81
2021/01/07 05:22:58;;;;;;;44.03;9.60;;;1.20;99.90;;;;;;4889382;28;20177;-79
2021/01/07 05:25:24;;;;;;;54.50;9.40;;;1.20;99.90;;;;;;4888262;28;20096;-79
2021/01/07 05:27:47;;;;;;;;;;;1.30;99.90;;;;;;4889536;28;20443;-79
2021/01/07 05:30:12;;;;;;;45.03;11.40;;;1.30;99.90;;;;;;4888437;28;20012;-80
2021/01/07 05:32:36;;;;;;;46.40;9.45;;;1.30;99.90;;;;;;4890374;28;20184;-80
2021/01/07 05:35:00;;;;;;;45.05;11.30;;;1.30;99.90;;;;;;4889234;28;20176;-79
2021/01/07 05:37:23;;;;;;;39.28;9.55;;;1.30;99.90;;;;;;4886819;28;20553;-79
2021/01/07 05:39:47;;;;;;;36.55;8.98;;;1.30;99.90;;;;;;4887559;28;20104;-79
2021/01/07 05:42:12;;;;;;;43.15;9.15;;;1.40;99.90;;;;;;4889682;28;20124;-79
2021/01/07 05:44:35;;;;;;;35.53;7.95;;;1.30;99.90;;;;;;4889226;28;20084;-79
2021/01/07 05:46:58;;;;;;;30.40;8.55;;;1.30;99.90;;;;;;4890229;28;20095;-79
2021/01/07 05:49:20;;;;;;;33.90;8.40;;;1.30;99.90;;;;;;4889633;28;20115;-78
2021/01/07 05:51:47;;;;;;;33.05;8.48;;;1.30;99.90;;;;;;4879972;28;20445;-80
2021/01/07 05:54:13;;;;;;;37.15;8.77;;;1.40;99.90;;;;;;4878588;28;20554;-80
2021/01/07 05:56:38;;;;;;;35.85;8.88;;;1.30;99.90;;;;;;4887048;28;21386;-79
2021/01/07 05:59:02;;;;;;;29.98;7.53;;;1.30;99.90;;;;;;4889843;28;20100;-79
2021/01/07 06:01:25;;;;;;;33.15;8.60;;;1.30;99.90;;;;;;4888680;28;20162;-78
2021/01/07 06:03:49;;;;;;;39.30;9.63;;;1.30;99.90;;;;;;4888819;28;20141;-80
2021/01/07 06:06:15;;;;;;;38.60;9.23;;;1.40;99.90;;;;;;4890440;28;20126;-79
2021/01/07 06:08:40;;;;;;;29.67;7.70;;;1.40;99.90;;;;;;4884848;28;20476;-79
2021/01/07 06:11:06;;;;;;;36.40;8.75;;;1.40;99.90;;;;;;4888834;28;20512;-79
2021/01/07 06:13:29;;;;;;;41.28;8.90;;;1.40;99.90;;;;;;4888591;28;20095;-79
2021/01/07 06:15:52;;;;;;;33.50;8.15;;;1.40;99.90;;;;;;4887794;28;20458;-79
2021/01/07 06:18:17;;;;;;;30.05;7.95;;;1.40;99.90;;;;;;4889380;28;20420;-80
2021/01/07 06:20:40;;;;;;;34.20;9.00;;;1.40;99.90;;;;;;4887610;28;20092;-80
2021/01/07 06:23:04;;;;;;;31.15;9.05;;;1.40;99.90;;;;;;4887286;28;20495;-80
2021/01/07 06:25:27;;;;;;;32.53;8.35;;;1.40;99.90;;;;;;4887224;28;20090;-79
2021/01/07 06:27:52;;;;;;;29.40;8.35;;;1.40;99.90;;;;;;4887329;28;20123;-79
2021/01/07 06:30:43;;;;;;;44.60;9.23;;;1.40;99.90;;;;;;4888818;28;20131;-79
2021/01/07 06:33:09;;;;;;;37.50;8.40;;;0.90;99.90;;;;;;4839804;28;20112;-79
2021/01/07 06:35:39;;;;;;;38.03;8.68;;;1.50;99.90;;;;;;4886508;28;20111;-79
2021/01/07 06:38:02;;;;;;;37.75;9.85;;;1.40;99.90;;;;;;4896889;28;20557;-79
2021/01/07 06:40:26;;;;;;;41.38;8.57;;;1.40;99.90;;;;;;4900743;28;20491;-79
2021/01/07 06:42:51;;;;;;;34.05;7.95;;;1.40;99.90;;;;;;4901687;28;20091;-79
2021/01/07 06:45:14;;;;;;;38.00;8.85;;;1.40;99.90;;;;;;4897706;28;23688;-80
2021/01/07 06:47:38;;;;;;;30.27;8.52;;;1.40;99.90;;;;;;4896656;28;20249;-80
2021/01/07 06:50:03;;;;;;;32.78;7.97;;;;;;;;;;4895311;28;20475;-80
2021/01/07 06:52:26;;;;;;;28.52;8.43;;;1.40;99.90;;;;;;4907652;28;20080;-79
2021/01/07 06:54:49;;;;;;;29.52;7.43;;;1.40;99.90;;;;;;4889133;28;20083;-82
2021/01/07 06:57:13;;;;;;;30.90;7.88;;;1.40;99.90;;;;;;4894804;28;20103;-79
2021/01/07 06:59:36;;;;;;;33.67;8.93;;;1.40;99.90;;;;;;4904603;28;20090;-79
2021/01/07 07:02:00;;;;;;;38.72;8.27;;;1.50;99.90;;;;;;4901849;28;20454;-80
2021/01/07 07:04:25;;;;;;;41.58;9.00;;;1.50;99.90;;;;;;4897066;28;20114;-79
2021/01/07 07:06:57;;;;;;;31.98;8.50;;;1.40;99.90;;;;;;4902228;28;20106;-80
2021/01/07 07:09:20;;;;;;;31.08;8.55;;;1.40;99.90;;;;;;4897860;28;20542;-80
2021/01/07 07:11:52;;;;;;;39.45;9.20;;;1.50;99.90;;;;;;4898881;28;20132;-78
2021/01/07 07:14:17;;;;;;;40.80;9.38;;;1.40;99.90;;;;;;4900443;28;20093;-80
2021/01/07 07:16:41;;;;;;;39.45;10.18;;;1.40;99.90;;;;;;4899460;28;20519;-80
2021/01/07 07:19:07;;;;;;;42.55;9.05;;;1.50;99.90;;;;;;4897110;28;20138;-79
2021/01/07 07:21:30;;;;;;;46.20;9.02;;;1.50;99.90;;;;;;4898917;28;20099;-79
2021/01/07 07:23:56;;;;;;;37.08;8.88;;;1.50;99.90;;;;;;4897501;28;20087;-79
2021/01/07 07:26:36;;;;;;;44.38;9.85;;;1.50;99.90;;;;;;4899653;28;20084;-79
2021/01/07 07:29:03;;;;;;;32.30;8.85;;;1.50;99.90;;;;;;4899502;28;20472;-80
2021/01/07 07:31:37;;;;;;;37.70;9.38;;;1.50;99.90;;;;;;4892798;28;20082;-80
2021/01/07 07:34:01;;;;;;;32.95;8.60;;;1.50;99.90;;;;;;4899283;28;20529;-79
2021/01/07 07:36:31;;;;;;;45.10;10.40;;;1.60;99.90;;;;;;4890835;28;20097;-80
2021/01/07 07:38:57;;;;;;;40.78;9.63;;;1.60;99.90;;;;;;4898987;28;20095;-79
2021/01/07 07:41:26;;;;;;;41.08;9.80;;;1.60;99.90;;;;;;4901565;28;20118;-80
2021/01/07 07:43:54;;;;;;;27.17;8.80;;;1.60;99.90;;;;;;4883989;28;20091;-79
2021/01/07 07:46:25;;;;;;;37.88;9.15;;;1.60;99.90;;;;;;4898740;28;20136;-79
2021/01/07 07:48:47;;;;;;;41.35;9.32;;;1.50;99.90;;;;;;4896284;28;20092;-78
2021/01/07 07:51:12;;;;;;;42.80;9.57;;;1.50;99.90;;;;;;4897532;28;20127;-80
2021/01/07 07:53:35;;;;;;;36.60;8.90;;;1.50;99.90;;;;;;4902051;28;20575;-78
2021/01/07 07:55:59;;;;;;;38.72;9.93;;;1.50;99.90;;;;;;4889539;28;20118;-79
2021/01/07 07:58:22;;;;;;;40.78;9.68;;;1.50;99.90;;;;;;4895662;28;20150;-79
2021/01/07 08:00:50;;;;;;;33.38;8.77;;;1.50;99.90;;;;;;4898842;28;20546;-78
2021/01/07 08:03:13;;;;;;;34.15;8.38;;;1.50;99.90;;;;;;4890929;28;20897;-80
2021/01/07 08:05:37;;;;;;;34.10;7.78;;;1.50;99.90;;;;;;4901335;28;20107;-79
2021/01/07 08:08:01;;;;;;;39.47;8.90;;;1.50;99.90;;;;;;4897890;28;20086;-79
2021/01/07 08:10:25;;;;;;;36.50;9.45;;;1.50;99.90;;;;;;4897642;28;20107;-79
2021/01/07 08:12:51;;;;;;;37.60;9.50;;;1.60;99.90;;;;;;4879443;28;20084;-80
2021/01/07 08:15:26;;;;;;;34.83;8.38;;;1.60;99.90;;;;;;4889999;28;20091;-80
2021/01/07 08:17:49;;;;;;;39.33;8.52;;;1.60;99.90;;;;;;4900798;28;20083;-80
2021/01/07 08:20:22;;;;;;;32.65;8.07;;;1.60;99.90;;;;;;4895422;28;20431;-78
2021/01/07 08:22:45;;;;;;;32.92;8.70;;;1.60;99.90;;;;;;4897115;28;20213;-80
2021/01/07 08:25:09;;;;;;;37.42;8.68;;;1.60;99.90;;;;;;4898623;28;20111;-79
2021/01/07 08:27:33;;;;;;;37.30;8.45;;;1.60;99.90;;;;;;4899182;28;20170;-80
2021/01/07 08:30:00;;;;;;;30.65;7.97;;;1.60;99.90;;;;;;4899818;28;20087;-79
2021/01/07 08:32:31;;;;;;;44.67;9.52;;;1.60;99.90;;;;;;4897993;28;20110;-79
2021/01/07 08:34:54;;;;;;;40.30;9.65;;;1.60;99.90;;;;;;4899014;28;20097;-81
2021/01/07 08:37:21;;;;;;;32.10;8.50;;;1.70;99.90;;;;;;4899179;28;20593;-80
2021/01/07 08:39:45;;;;;;;29.60;8.13;;;1.70;99.90;;;;;;4885880;28;20090;-80
2021/01/07 08:42:08;;;;;;;23.95;7.50;;;1.70;99.90;;;;;;4898734;28;20542;-80
2021/01/07 08:44:31;;;;;;;27.98;7.30;;;1.70;99.90;;;;;;4898224;28;20178;-80
2021/01/07 08:46:55;;;;;;;23.05;6.68;;;1.70;99.90;;;;;;4897715;28;20562;-80
2021/01/07 08:49:20;;;;;;;22.88;6.75;;;1.60;99.90;;;;;;4898888;28;20110;-81
2021/01/07 08:51:44;;;;;;;;;;;1.60;99.90;;;;;;4901671;28;20635;-79
2021/01/07 08:54:12;;;;;;;22.52;5.22;;;1.60;99.90;;;;;;4900691;28;20429;-80
2021/01/07 08:56:36;;;;;;;25.35;6.93;;;1.60;99.90;;;;;;4893432;28;20118;-78
2021/01/07 08:59:19;;;;;;;18.35;5.78;;;1.70;99.90;;;;;;4897012;28;20102;-78
2021/01/07 09:01:54;;;;;;;22.23;6.00;;;1.60;99.90;;;;;;4854528;28;20561;-78
2021/01/07 09:05:03;;;;;;;24.90;7.03;;;1.60;99.90;;;;;;4824132;28;20090;-79
2021/01/07 09:07:56;;;;;;;27.52;6.95;;;1.70;99.90;;;;;;4837860;28;20099;-79
2021/01/07 09:10:49;;;;;;;27.63;7.20;;;1.70;99.90;;;;;;4840276;28;20461;-78
2021/01/07 09:13:33;;;;;;;27.08;7.35;;;1.70;99.90;;;;;;4835547;28;20171;-82
2021/01/07 09:16:20;;;;;;;30.23;7.25;;;1.70;99.90;;;;;;4856387;28;20087;-79
2021/01/07 09:25:15;;;;;;;29.02;6.45;;;1.80;99.90;;;;;;4804833;28;20550;-79
2021/01/07 09:31:18;;;;;;;32.75;7.55;;;1.80;99.90;;;;;;4817450;28;20102;-80
2021/01/07 09:34:10;;;;;;;35.03;7.18;;;1.80;99.90;;;;;;4830268;28;20173;-79
2021/01/07 09:37:03;;;;;;;28.83;7.07;;;1.80;99.90;;;;;;4833669;28;20823;-79
2021/01/07 09:39:47;;;;;;;27.95;7.43;;;1.80;99.90;;;;;;4834827;28;20091;-78
2021/01/07 09:46:00;;;;;;;32.03;7.13;;;1.70;99.90;;;;;;4828129;28;20120;-79
2021/01/07 09:48:38;;;;;;;40.80;9.05;;;1.70;99.90;;;;;;4833964;28;20087;-78
2021/01/07 09:51:52;;;;;;;27.52;7.07;;;1.80;99.90;;;;;;4831015;28;20151;-80
2021/01/07 09:54:44;;;;;;;27.67;7.35;;;1.80;99.90;;;;;;4839166;28;20665;-79
2021/01/07 10:17:46;;;;;;;23.73;6.90;;;1.90;99.90;;;;;;4837424;28;20091;-80
2021/01/07 10:24:09;;;;;;;23.67;6.30;;;2.00;99.90;;;;;;4830981;28;20091;-80
2021/01/07 10:27:19;;;;;;;27.20;6.47;;;2.00;99.90;;;;;;4806070;28;20095;-81
2021/01/07 10:33:26;;;;;;;27.15;5.95;;;2.10;99.90;;;;;;4797534;28;19967;-80
2021/01/07 10:39:36;;;;;;;21.25;5.75;;;2.00;99.90;;;;;;4816311;28;20127;-80
2021/01/07 10:42:30;;;;;;;24.63;7.03;;;1.90;99.90;;;;;;4801523;28;20102;-80
2021/01/07 10:45:25;;;;;;;28.48;6.63;;;1.90;99.90;;;;;;4817293;28;20088;-79
2021/01/07 10:47:52;;;;;;;20.05;6.05;;;1.90;99.90;;;;;;4849657;28;20118;-79
2021/01/07 10:50:21;;;;;;;28.50;7.25;;;1.90;99.90;;;;;;4879092;28;20523;-80
2021/01/07 10:53:01;;;;;;;22.98;6.75;;;2.00;99.90;;;;;;4881937;28;20088;-81
2021/01/07 10:55:27;;;;;;;25.92;6.68;;;2.10;99.90;;;;;;4873186;28;20091;-78
2021/01/07 10:58:07;;;;;;;22.88;6.93;;;2.10;99.90;;;;;;4875681;28;20091;-79
2021/01/07 11:00:43;;;;;;;22.20;6.93;;;2.30;99.90;;;;;;4884177;28;20110;-80
2021/01/07 11:03:50;;;;;;;29.73;7.50;;;2.30;99.90;;;;;;4878379;28;20611;-79
2021/01/07 11:06:17;;;;;;;30.48;7.38;;;2.30;99.90;;;;;;4875684;28;20094;-80
2021/01/07 11:08:48;;;;;;;25.42;7.10;;;2.30;99.90;;;;;;4869385;28;20178;-79
2021/01/07 11:11:21;;;;;;;26.48;7.63;;;2.20;99.90;;;;;;4876219;28;20419;-79
2021/01/07 11:13:52;;;;;;;25.88;6.82;;;2.10;99.90;;;;;;4879881;28;20107;-79
2021/01/07 11:16:21;;;;;;;33.72;7.50;;;2.10;99.90;;;;;;4874976;28;20103;-79
2021/01/07 11:18:49;;;;;;;26.88;6.78;;;2.10;99.90;;;;;;4870706;28;20613;-79
2021/01/07 11:21:17;;;;;;;28.45;7.63;;;2.00;99.90;;;;;;4875526;28;20514;-79
2021/01/07 11:23:42;;;;;;;28.15;7.38;;;2.00;99.90;;;;;;4864623;28;20088;-80
2021/01/07 11:26:05;;;;;;;26.33;7.57;;;2.10;99.90;;;;;;4851659;28;20170;-78
2021/01/07 11:28:30;;;;;;;30.52;7.47;;;2.10;99.90;;;;;;4857344;28;20092;-78
2021/01/07 11:30:53;;;;;;;30.17;7.88;;;2.00;99.90;;;;;;4865911;28;20087;-79
2021/01/07 11:33:17;;;;;;;33.83;7.72;;;2.10;99.90;;;;;;4857144;28;20637;-78
2021/01/07 11:35:44;;;;;;;29.70;7.53;;;2.20;99.90;;;;;;4852960;28;20095;-79
2021/01/07 11:38:21;;;;;;;34.08;8.57;;;2.20;99.90;;;;;;4852297;28;20580;-78
2021/01/07 11:40:54;;;;;;;27.98;7.47;;;2.30;99.90;;;;;;4851850;28;21093;-79
2021/01/07 11:43:53;;;;;;;30.20;6.80;;;2.30;99.90;;;;;;4851525;28;20602;-78
2021/01/07 11:46:18;;;;;;;22.90;7.07;;;2.20;99.90;;;;;;4852060;28;20099;-79
2021/01/07 11:48:46;;;;;;;36.22;8.75;;;2.20;99.90;;;;;;4841540;28;20108;-79
2021/01/07 11:51:12;;;;;;;34.58;8.30;;;2.20;99.90;;;;;;4851082;28;20120;-79
2021/01/07 11:53:37;;;;;;;30.33;8.18;;;2.10;99.90;;;;;;4842875;28;20088;-80
2021/01/07 11:56:01;;;;;;;23.63;7.82;;;2.00;99.90;;;;;;4853649;28;20116;-81
2021/01/07 11:58:27;;;;;;;29.52;7.20;;;2.00;99.90;;;;;;4851304;28;20090;-78
2021/01/07 12:00:54;;;;;;;26.63;8.02;;;2.00;99.90;;;;;;4853006;28;20084;-80
2021/01/07 12:03:17;;;;;;;28.50;7.82;;;2.10;99.90;;;;;;4870095;28;20093;-79
2021/01/07 12:05:40;;;;;;;24.75;8.55;;;2.10;99.90;;;;;;4867832;28;20111;-80
2021/01/07 12:08:13;;;;;;;33.72;8.75;;;2.10;99.90;;;;;;4869957;28;20187;-81
2021/01/07 12:10:43;;;;;;;32.22;8.45;;;2.10;99.90;;;;;;4843396;28;20590;-79
2021/01/07 12:13:16;;;;;;;31.60;8.63;;;2.10;99.90;;;;;;4858845;28;20089;-80
2021/01/07 12:15:44;;;;;;;24.38;7.38;;;2.10;99.90;;;;;;4862973;28;20097;-78
2021/01/07 12:18:08;;;;;;;29.05;7.88;;;2.20;99.90;;;;;;4863317;28;20089;-81
2021/01/07 12:20:35;;;;;;;28.67;7.38;;;2.10;99.90;;;;;;4859508;28;20171;-78
2021/01/07 12:22:59;;;;;;;31.02;8.20;;;2.20;99.90;;;;;;4860337;28;20427;-79
2021/01/07 12:25:22;;;;;;;29.60;8.00;;;2.20;99.90;;;;;;4855869;28;20222;-78
2021/01/07 12:27:48;;;;;;;31.98;8.48;;;2.20;99.90;;;;;;4863723;28;20110;-79
2021/01/07 12:30:16;;;;;;;;;;;2.20;99.90;;;;;;4868906;28;20539;-79
2021/01/07 12:32:42;;;;;;;38.67;9.00;;;2.10;99.90;;;;;;4862392;28;20407;-78
2021/01/07 12:35:08;;;;;;;33.88;8.77;;;2.00;99.90;;;;;;4855588;28;20089;-79
2021/01/07 12:37:38;;;;;;;30.38;8.45;;;2.00;99.90;;;;;;4860694;28;20111;-79
2021/01/07 12:40:07;;;;;;;41.38;9.43;;;2.10;99.90;;;;;;4860098;28;20083;-78
2021/01/07 12:42:34;;;;;;;34.17;9.38;;;2.00;99.90;;;;;;4862930;28;20528;-79
2021/01/07 12:45:02;;;;;;;37.55;9.93;;;2.00;99.90;;;;;;4855872;28;20084;-79
2021/01/07 12:47:25;;;;;;;33.10;8.95;;;2.00;99.90;;;;;;4853469;28;20080;-78
2021/01/07 12:49:50;;;;;;;40.45;9.50;;;2.00;99.90;;;;;;4858618;28;20208;-79
2021/01/07 12:52:13;;;;;;;38.20;9.60;;;2.00;99.90;;;;;;4865428;28;20111;-79
2021/01/07 12:54:36;;;;;;;38.30;9.95;;;2.20;99.90;;;;;;4843850;28;20168;-79
2021/01/07 12:57:05;;;;;;;33.22;10.15;;;2.30;99.90;;;;;;4866106;28;20158;-80
2021/01/07 12:59:34;;;;;;;34.97;9.18;;;2.50;99.90;;;;;;4847905;28;20181;-79
2021/01/07 13:02:08;;;;;;;35.38;9.15;;;2.60;99.90;;;;;;4853871;28;20092;-80
2021/01/07 13:04:41;;;;;;;27.90;8.65;;;2.60;99.90;;;;;;4867713;28;20526;-80
2021/01/07 13:07:06;;;;;;;24.83;7.43;;;2.70;99.90;;;;;;4855041;28;20308;-79
2021/01/07 13:09:35;;;;;;;22.95;7.68;;;2.50;99.90;;;;;;4869018;28;20388;-78
2021/01/07 13:11:59;;;;;;;24.67;8.10;;;2.60;99.90;;;;;;4868854;28;20183;-79
2021/01/07 13:14:31;;;;;;;24.42;8.23;;;2.60;99.90;;;;;;4864609;28;20446;-80
2021/01/07 13:16:57;;;;;;;28.27;7.90;;;2.60;99.90;;;;;;4854103;28;20103;-80
2021/01/07 13:19:20;;;;;;;;;;;2.60;99.90;;;;;;4861925;28;20107;-80
2021/01/07 13:21:43;;;;;;;16.33;6.25;;;2.70;99.90;;;;;;4865997;28;20438;-80
2021/01/07 13:24:06;;;;;;;19.23;6.40;;;2.70;99.90;;;;;;4869171;28;20491;-79
2021/01/07 13:26:29;;;;;;;20.50;7.03;;;2.70;99.90;;;;;;4848818;28;20119;-79
2021/01/07 13:28:52;;;;;;;19.23;6.65;;;;;;;;;;4866227;28;20080;-79
2021/01/07 13:31:17;;;;;;;14.35;6.15;;;2.70;99.90;;;;;;4860258;28;20569;-79